Time;durP1;ratioP1;P1;durP2;ratioP2;P2;SDS_P1;SDS_P2;PMS_P1;PMS_P2;Temp;Humidity;BMP_temperature;BMP_pressure;BME280_temperature;BME280_humidity;BME280_pressure;Samples;Min_cycle;Max_cycle;Signal;HPM_P1;HPM_P2
2023/08/27 00:00:28;;;;;;;3.90;2.50;;;26.80;62.80;;;;;;5113236;28;20048;-73
2023/08/27 00:02:54;;;;;;;2.78;2.50;;;26.80;62.80;;;;;;5123034;27;20464;-73
2023/08/27 00:05:20;;;;;;;2.95;2.50;;;26.80;62.80;;;;;;5154121;27;20118;-73
2023/08/27 00:07:45;;;;;;;2.63;2.42;;;26.80;62.80;;;;;;5125872;27;20034;-72
2023/08/27 00:10:12;;;;;;;3.00;2.50;;;26.80;63.00;;;;;;5116405;28;20401;-73
2023/08/27 00:12:37;;;;;;;2.42;2.20;;;26.70;63.00;;;;;;5117334;28;20519;-72
2023/08/27 00:15:04;;;;;;;2.50;2.30;;;26.70;63.10;;;;;;5098603;28;20123;-72
2023/08/27 00:17:30;;;;;;;3.13;2.70;;;26.70;63.10;;;;;;5115898;28;20046;-72
2023/08/27 00:19:55;;;;;;;2.83;2.47;;;26.80;63.20;;;;;;5129524;27;20449;-72
2023/08/27 00:22:21;;;;;;;3.10;2.60;;;26.70;63.20;;;;;;5137839;27;20043;-72
2023/08/27 00:24:47;;;;;;;2.72;2.22;;;26.70;63.20;;;;;;5137701;27;20119;-73
2023/08/27 00:27:13;;;;;;;2.75;2.50;;;26.70;63.30;;;;;;5137649;27;20384;-72
2023/08/27 00:29:38;;;;;;;5.00;2.60;;;26.70;63.30;;;;;;5138191;27;20435;-72
2023/08/27 00:32:05;;;;;;;3.05;2.47;;;26.80;63.40;;;;;;5137372;27;20023;-74
2023/08/27 00:34:34;;;;;;;2.58;2.38;;;26.70;63.40;;;;;;5117143;28;20485;-72
2023/08/27 00:37:01;;;;;;;3.08;2.78;;;26.70;63.40;;;;;;5115604;28;20032;-72
2023/08/27 00:39:29;;;;;;;3.47;2.50;;;26.70;63.50;;;;;;5115107;28;20023;-72
2023/08/27 00:41:55;;;;;;;2.78;2.30;;;26.70;63.50;;;;;;5116533;28;20035;-73
2023/08/27 00:44:21;;;;;;;2.65;2.40;;;26.70;63.50;;;;;;5116922;28;20024;-72
2023/08/27 00:46:48;;;;;;;2.60;2.40;;;26.70;63.60;;;;;;5116552;28;20103;-72
2023/08/27 00:49:15;;;;;;;2.60;2.38;;;26.70;63.60;;;;;;5116630;28;20036;-72
2023/08/27 00:51:42;;;;;;;2.72;2.53;;;26.70;63.60;;;;;;5116460;28;20023;-72
2023/08/27 00:54:08;;;;;;;4.45;2.75;;;26.70;63.70;;;;;;5116257;28;20545;-73
2023/08/27 00:56:34;;;;;;;3.60;2.60;;;26.70;63.70;;;;;;5116793;28;20111;-72
2023/08/27 00:59:01;;;;;;;2.88;2.30;;;26.70;63.70;;;;;;5116565;28;20024;-72
2023/08/27 01:01:29;;;;;;;3.40;2.55;;;26.70;63.80;;;;;;5115367;28;20051;-73
2023/08/27 01:03:54;;;;;;;2.83;2.53;;;26.70;63.80;;;;;;5115860;28;20042;-73
2023/08/27 01:06:20;;;;;;;3.65;2.65;;;26.70;63.90;;;;;;5115787;28;20377;-72
2023/08/27 01:08:58;;;;;;;3.25;2.85;;;26.60;63.90;;;;;;5116283;28;20062;-72
2023/08/27 01:11:36;;;;;;;2.92;2.60;;;26.60;64.00;;;;;;5116085;28;20039;-74
2023/08/27 01:14:05;;;;;;;3.67;2.67;;;26.60;64.00;;;;;;5116271;27;20106;-72
2023/08/27 01:16:33;;;;;;;3.45;2.92;;;26.50;63.90;;;;;;5115977;28;20119;-72
2023/08/27 01:19:00;;;;;;;3.17;2.67;;;26.50;64.00;;;;;;5115573;28;20084;-72
2023/08/27 01:21:29;;;;;;;3.10;2.80;;;26.40;64.00;;;;;;5115780;28;20048;-73
2023/08/27 01:23:55;;;;;;;3.30;3.00;;;26.50;64.20;;;;;;5116011;28;20080;-72
2023/08/27 01:26:41;;;;;;;3.28;2.97;;;26.40;64.20;;;;;;5115852;28;20467;-72
2023/08/27 01:29:16;;;;;;;3.75;2.92;;;26.40;64.30;;;;;;5114354;28;20431;-72
2023/08/27 01:31:51;;;;;;;3.45;2.90;;;26.40;64.30;;;;;;5114885;28;20024;-72
2023/08/27 01:34:18;;;;;;;3.03;2.72;;;26.30;64.40;;;;;;5115836;28;20024;-74
2023/08/27 01:36:44;;;;;;;2.85;2.60;;;26.30;64.40;;;;;;5113420;28;20059;-72
2023/08/27 01:39:14;;;;;;;2.85;2.55;;;26.30;64.50;;;;;;5114943;28;20734;-73
2023/08/27 01:41:39;;;;;;;2.70;2.50;;;26.20;64.60;;;;;;5115268;28;20024;-73
2023/08/27 01:44:05;;;;;;;3.10;2.80;;;26.20;64.60;;;;;;5113450;28;20462;-74
2023/08/27 01:46:31;;;;;;;4.10;3.15;;;26.20;64.70;;;;;;5111275;28;20039;-73
2023/08/27 01:48:56;;;;;;;4.25;2.90;;;26.20;64.60;;;;;;5113503;28;20578;-73
2023/08/27 01:51:22;;;;;;;3.00;2.70;;;26.10;64.70;;;;;;5101611;28;20462;-72
2023/08/27 01:53:48;;;;;;;3.22;2.80;;;26.10;64.80;;;;;;5114158;28;20106;-73
2023/08/27 01:56:13;;;;;;;3.00;2.70;;;26.10;64.90;;;;;;5114015;28;20468;-73
2023/08/27 01:58:39;;;;;;;3.13;2.80;;;26.10;64.90;;;;;;5115062;28;20057;-73
2023/08/27 02:01:05;;;;;;;2.95;2.63;;;26.10;64.80;;;;;;5113125;27;20127;-73
2023/08/27 02:03:30;;;;;;;3.42;2.90;;;26.10;64.90;;;;;;5136294;27;20038;-72
2023/08/27 02:05:56;;;;;;;3.30;3.00;;;26.10;64.80;;;;;;5128318;27;20103;-72
2023/08/27 02:08:21;;;;;;;3.10;2.80;;;26.00;64.80;;;;;;5115481;28;20436;-72
2023/08/27 02:10:50;;;;;;;3.78;2.75;;;26.00;64.90;;;;;;5115104;28;20440;-72
2023/08/27 02:13:16;;;;;;;3.60;3.00;;;26.00;65.00;;;;;;5101510;28;20020;-74
2023/08/27 02:15:43;;;;;;;3.08;2.78;;;26.00;65.10;;;;;;5096205;28;20092;-74
2023/08/27 02:18:09;;;;;;;3.03;2.70;;;26.00;65.10;;;;;;5116570;27;20032;-73
2023/08/27 02:20:35;;;;;;;3.10;2.80;;;25.90;65.10;;;;;;5112822;28;20077;-73
2023/08/27 02:23:00;;;;;;;3.38;3.08;;;25.90;65.20;;;;;;5109503;28;20036;-74
2023/08/27 02:25:26;;;;;;;3.85;2.92;;;25.90;65.30;;;;;;5113097;28;20023;-73
2023/08/27 02:27:52;;;;;;;3.17;2.88;;;25.90;65.30;;;;;;5111604;28;20107;-73
2023/08/27 02:30:17;;;;;;;3.83;3.00;;;25.90;65.30;;;;;;5113951;28;20030;-73
2023/08/27 02:32:43;;;;;;;4.13;2.85;;;25.80;65.30;;;;;;5114484;28;20102;-72
2023/08/27 02:35:09;;;;;;;3.70;2.90;;;25.80;65.50;;;;;;5114198;28;20036;-74
2023/08/27 02:37:34;;;;;;;4.47;2.97;;;25.70;65.50;;;;;;5113368;28;20042;-73
2023/08/27 02:40:00;;;;;;;3.63;2.97;;;25.80;65.60;;;;;;5113975;28;20034;-74
2023/08/27 02:42:25;;;;;;;3.95;3.00;;;25.80;65.60;;;;;;5113723;28;20019;-73
2023/08/27 02:44:51;;;;;;;4.22;3.05;;;25.80;65.60;;;;;;5110111;28;20030;-74
2023/08/27 02:47:17;;;;;;;3.40;3.10;;;25.70;65.50;;;;;;5114116;28;20030;-71
2023/08/27 02:49:42;;;;;;;3.40;3.10;;;25.70;65.60;;;;;;5114193;28;20030;-71
2023/08/27 02:52:08;;;;;;;3.28;2.97;;;25.70;65.70;;;;;;5113663;28;20389;-73
2023/08/27 02:54:33;;;;;;;4.00;3.00;;;25.60;65.70;;;;;;5113090;28;20027;-71
2023/08/27 02:56:59;;;;;;;3.78;3.00;;;25.60;65.80;;;;;;5113567;28;20035;-72
2023/08/27 02:59:25;;;;;;;3.90;3.20;;;25.60;65.90;;;;;;5114188;28;20515;-71
2023/08/27 03:01:54;;;;;;;3.15;2.85;;;25.60;66.00;;;;;;5114272;28;20032;-71
2023/08/27 03:04:19;;;;;;;3.80;3.08;;;25.60;66.00;;;;;;5113580;28;20031;-71
2023/08/27 03:06:45;;;;;;;3.85;3.08;;;25.70;66.10;;;;;;5114118;28;20476;-71
2023/08/27 03:09:10;;;;;;;3.88;3.20;;;25.70;66.10;;;;;;5112856;28;20469;-71
2023/08/27 03:11:36;;;;;;;3.75;3.20;;;25.70;66.00;;;;;;5112577;28;20059;-72
2023/08/27 03:14:02;;;;;;;3.33;2.88;;;25.70;65.90;;;;;;5114047;28;20028;-71
2023/08/27 03:16:28;;;;;;;3.40;3.03;;;25.70;65.90;;;;;;5114012;28;20119;-71
2023/08/27 03:18:54;;;;;;;3.30;3.00;;;25.70;66.00;;;;;;5115754;27;20024;-71
2023/08/27 03:21:21;;;;;;;3.47;3.00;;;25.70;66.00;;;;;;5140609;27;20054;-72
2023/08/27 03:23:47;;;;;;;5.35;3.20;;;25.60;66.00;;;;;;5113555;28;20028;-71
2023/08/27 03:26:12;;;;;;;4.00;3.47;;;25.60;66.00;;;;;;5112306;28;20031;-72
2023/08/27 03:28:38;;;;;;;5.10;3.50;;;25.60;66.10;;;;;;5112410;28;20020;-71
2023/08/27 03:31:04;;;;;;;3.88;3.10;;;25.60;66.10;;;;;;5113652;28;20111;-71
2023/08/27 03:33:31;;;;;;;3.50;3.05;;;25.60;66.20;;;;;;5112886;28;20031;-72
2023/08/27 03:35:58;;;;;;;3.65;3.08;;;25.60;66.20;;;;;;5114788;28;20023;-72
2023/08/27 03:38:24;;;;;;;3.08;2.83;;;25.60;66.20;;;;;;5116612;28;20027;-71
2023/08/27 03:40:51;;;;;;;3.50;3.10;;;25.70;66.30;;;;;;5117817;28;20101;-72
2023/08/27 03:43:17;;;;;;;3.40;3.10;;;25.70;66.30;;;;;;5117648;28;20024;-71
2023/08/27 03:45:43;;;;;;;4.55;3.20;;;25.70;66.20;;;;;;5117752;28;20377;-71
2023/08/27 03:48:09;;;;;;;3.55;3.00;;;25.70;66.10;;;;;;5117858;28;20063;-71
2023/08/27 03:50:36;;;;;;;3.60;3.30;;;25.70;66.10;;;;;;5117846;28;20024;-71
2023/08/27 03:53:05;;;;;;;4.82;3.10;;;25.80;66.20;;;;;;5117403;28;20433;-71
2023/08/27 03:55:41;;;;;;;3.47;3.00;;;25.80;66.10;;;;;;5116081;28;20058;-71
2023/08/27 03:58:08;;;;;;;3.78;3.35;;;25.80;66.10;;;;;;5115809;28;20027;-71
2023/08/27 04:00:34;;;;;;;3.83;3.13;;;25.80;66.00;;;;;;5115819;28;20055;-72
2023/08/27 04:03:01;;;;;;;3.75;3.00;;;25.80;66.00;;;;;;5117927;28;20028;-71
2023/08/27 04:05:27;;;;;;;5.20;3.33;;;25.90;66.20;;;;;;5126246;27;20473;-71
2023/08/27 04:07:52;;;;;;;3.65;3.22;;;25.90;66.10;;;;;;5154129;27;20063;-72
2023/08/27 04:10:18;;;;;;;2.70;2.50;;;25.90;66.10;;;;;;5138296;27;20389;-71
2023/08/27 04:12:44;;;;;;;3.38;3.08;;;25.90;66.00;;;;;;5133656;27;20031;-71
2023/08/27 04:15:09;;;;;;;3.58;3.00;;;25.90;66.00;;;;;;5117472;28;20039;-71
2023/08/27 04:17:35;;;;;;;3.40;3.10;;;26.00;66.00;;;;;;5125757;27;20023;-71
2023/08/27 04:20:01;;;;;;;3.50;3.15;;;26.00;66.00;;;;;;5137919;27;20098;-71
2023/08/27 04:22:27;;;;;;;3.00;2.70;;;26.00;65.90;;;;;;5124069;27;20039;-73
2023/08/27 04:24:54;;;;;;;4.35;3.08;;;26.10;65.90;;;;;;5117423;28;20039;-71
2023/08/27 04:27:20;;;;;;;3.65;3.30;;;26.10;65.90;;;;;;5117346;28;20028;-71
2023/08/27 04:29:46;;;;;;;2.97;2.78;;;26.10;65.90;;;;;;5117240;28;20020;-71
2023/08/27 04:32:12;;;;;;;3.33;2.85;;;26.20;65.80;;;;;;5116414;28;20031;-72
2023/08/27 04:34:38;;;;;;;3.13;2.83;;;26.20;65.80;;;;;;5116897;28;20519;-72
2023/08/27 04:37:03;;;;;;;3.90;3.40;;;26.20;65.80;;;;;;5116442;28;20028;-73
2023/08/27 04:39:30;;;;;;;3.53;3.22;;;26.20;65.80;;;;;;5115660;27;20035;-72
2023/08/27 04:41:56;;;;;;;3.45;3.03;;;26.30;65.80;;;;;;5115234;28;20362;-72
2023/08/27 04:44:22;;;;;;;3.88;3.10;;;26.30;65.80;;;;;;5115200;28;20507;-72
2023/08/27 04:46:47;;;;;;;3.22;2.90;;;26.30;65.80;;;;;;5116398;28;20036;-72
2023/08/27 04:49:13;;;;;;;3.60;3.17;;;26.30;65.80;;;;;;5115722;28;20073;-72
2023/08/27 04:51:39;;;;;;;3.70;3.10;;;26.30;65.80;;;;;;5116049;28;20462;-72
2023/08/27 04:54:04;;;;;;;3.95;3.35;;;26.40;65.80;;;;;;5116625;28;20031;-71
2023/08/27 04:56:30;;;;;;;3.70;3.40;;;26.40;65.80;;;;;;5116396;28;20034;-71
2023/08/27 04:58:56;;;;;;;4.72;3.10;;;26.40;65.70;;;;;;5116339;28;20458;-72
2023/08/27 05:01:22;;;;;;;3.45;3.15;;;26.50;65.70;;;;;;5115337;28;20031;-72
2023/08/27 05:03:47;;;;;;;3.55;3.25;;;26.50;65.70;;;;;;5116172;28;20032;-72
2023/08/27 05:06:13;;;;;;;3.55;3.25;;;26.50;65.70;;;;;;5116066;28;20434;-71
2023/08/27 05:08:39;;;;;;;3.67;3.33;;;26.50;65.60;;;;;;5115952;28;20031;-72
2023/08/27 05:11:05;;;;;;;4.53;3.28;;;26.50;65.70;;;;;;5115001;28;20035;-72
2023/08/27 05:13:31;;;;;;;3.78;3.38;;;26.50;65.60;;;;;;5116044;28;20477;-71
2023/08/27 05:15:56;;;;;;;3.88;3.30;;;26.50;65.50;;;;;;5116499;28;20034;-72
2023/08/27 05:18:22;;;;;;;3.40;3.10;;;26.60;65.60;;;;;;5115889;28;20104;-73
2023/08/27 05:20:47;;;;;;;3.70;3.40;;;26.60;65.50;;;;;;5115226;28;20039;-73
2023/08/27 05:23:13;;;;;;;3.45;3.15;;;26.70;65.50;;;;;;5115643;28;20058;-72
2023/08/27 05:25:39;;;;;;;3.80;3.10;;;26.70;65.50;;;;;;5127937;27;20058;-72
2023/08/27 05:28:05;;;;;;;4.70;3.20;;;26.70;65.40;;;;;;5118523;27;20035;-72
2023/08/27 05:30:30;;;;;;;3.50;3.20;;;26.70;65.40;;;;;;5115729;28;20072;-73
2023/08/27 05:32:56;;;;;;;3.85;3.40;;;26.70;65.40;;;;;;5115754;28;20032;-72
2023/08/27 05:35:24;;;;;;;3.63;3.20;;;26.80;65.40;;;;;;5116032;28;20037;-72
2023/08/27 05:37:50;;;;;;;3.33;3.03;;;26.80;65.40;;;;;;5115552;28;20027;-73
2023/08/27 05:40:15;;;;;;;4.43;3.20;;;26.80;65.40;;;;;;5115551;28;20103;-72
2023/08/27 05:42:41;;;;;;;3.80;3.30;;;26.90;65.40;;;;;;5115434;28;20098;-72
2023/08/27 05:45:07;;;;;;;4.57;3.63;;;26.90;65.40;;;;;;5115532;28;20030;-72
2023/08/27 05:47:33;;;;;;;4.13;3.40;;;26.90;65.30;;;;;;5114013;28;20028;-72
2023/08/27 05:49:59;;;;;;;4.10;3.08;;;26.90;65.20;;;;;;5115439;28;20080;-72
2023/08/27 05:52:24;;;;;;;4.07;3.40;;;27.00;65.20;;;;;;5115425;28;20035;-73
2023/08/27 05:54:50;;;;;;;3.60;3.17;;;27.00;65.10;;;;;;5115150;28;20031;-73
2023/08/27 05:57:16;;;;;;;4.00;3.60;;;27.00;65.10;;;;;;5113641;28;20056;-72
2023/08/27 05:59:42;;;;;;;3.40;3.10;;;27.10;65.10;;;;;;5113864;28;20032;-72
2023/08/27 06:02:09;;;;;;;3.53;3.05;;;27.10;65.00;;;;;;5114820;28;20019;-73
2023/08/27 06:04:34;;;;;;;3.58;3.20;;;27.20;65.00;;;;;;5114471;27;20031;-72
2023/08/27 06:07:00;;;;;;;4.80;3.25;;;27.30;65.00;;;;;;5115174;28;20464;-67
2023/08/27 06:09:26;;;;;;;4.00;3.42;;;27.30;64.80;;;;;;5128777;27;20024;-66
2023/08/27 06:11:51;;;;;;;3.75;3.15;;;27.40;65.40;;;;;;5135769;27;20027;-65
2023/08/27 06:14:17;;;;;;;5.18;3.58;;;27.40;64.60;;;;;;5136003;27;20023;-66
2023/08/27 06:16:43;;;;;;;3.30;3.00;;;27.40;64.60;;;;;;5135583;27;20087;-67
2023/08/27 06:19:09;;;;;;;3.40;3.10;;;27.50;64.60;;;;;;5143467;27;20028;-66
2023/08/27 06:21:34;;;;;;;3.92;3.20;;;27.50;64.50;;;;;;5127883;27;20050;-65
2023/08/27 06:24:00;;;;;;;3.65;3.22;;;27.50;64.40;;;;;;5120479;27;20470;-67
2023/08/27 06:26:26;;;;;;;3.70;3.20;;;27.50;64.30;;;;;;5113621;28;20067;-65
2023/08/27 06:28:51;;;;;;;4.68;3.33;;;27.60;64.30;;;;;;5114240;28;20043;-66
2023/08/27 06:31:17;;;;;;;5.57;3.40;;;27.60;64.20;;;;;;5114445;28;20031;-64
2023/08/27 06:33:43;;;;;;;4.18;3.60;;;27.60;64.20;;;;;;5114551;28;20043;-66
2023/08/27 06:36:08;;;;;;;4.18;3.42;;;27.70;64.20;;;;;;5114432;28;20035;-66
2023/08/27 06:38:34;;;;;;;3.92;3.30;;;27.70;64.70;;;;;;5114575;28;20466;-66
2023/08/27 06:40:59;;;;;;;5.35;3.00;;;27.70;64.00;;;;;;5114534;28;20038;-66
2023/08/27 06:43:25;;;;;;;3.35;2.78;;;27.80;63.90;;;;;;5113815;28;20036;-68
2023/08/27 06:45:51;;;;;;;3.45;3.10;;;27.80;63.80;;;;;;5114408;28;20031;-68
2023/08/27 06:48:17;;;;;;;6.10;3.30;;;27.80;64.40;;;;;;5113580;28;20114;-65
2023/08/27 06:50:43;;;;;;;3.20;2.90;;;27.90;63.80;;;;;;5114203;28;20386;-67
2023/08/27 06:53:10;;;;;;;4.07;3.10;;;27.90;63.70;;;;;;5113091;28;20020;-65
2023/08/27 06:55:35;;;;;;;3.55;3.05;;;27.90;63.60;;;;;;5113781;28;20027;-66
2023/08/27 06:58:01;;;;;;;3.83;3.22;;;28.00;63.60;;;;;;5112189;28;20457;-67
2023/08/27 07:00:27;;;;;;;4.10;3.20;;;28.00;63.40;;;;;;5113559;28;20030;-69
2023/08/27 07:02:53;;;;;;;3.47;3.10;;;28.00;63.30;;;;;;5114248;27;20028;-67
2023/08/27 07:05:19;;;;;;;3.25;2.95;;;28.10;63.40;;;;;;5113402;28;20366;-67
2023/08/27 07:07:45;;;;;;;3.88;3.10;;;28.10;63.30;;;;;;5113318;28;20031;-68
2023/08/27 07:10:14;;;;;;;5.20;3.20;;;28.10;63.20;;;;;;5113753;28;20381;-68
2023/08/27 07:12:40;;;;;;;3.40;3.10;;;28.10;63.10;;;;;;5114080;28;20024;-69
2023/08/27 07:15:07;;;;;;;5.35;3.25;;;28.10;63.10;;;;;;5113463;28;20020;-65
2023/08/27 07:17:33;;;;;;;3.63;3.00;;;28.10;63.10;;;;;;5111968;28;20112;-68
2023/08/27 07:20:07;;;;;;;4.55;3.33;;;28.10;63.10;;;;;;5114494;28;20099;-68
2023/08/27 07:22:33;;;;;;;4.38;3.65;;;28.10;63.00;;;;;;5114340;28;20040;-67
2023/08/27 07:24:59;;;;;;;7.05;6.22;;;28.10;62.90;;;;;;5113605;28;20047;-68
2023/08/27 07:27:25;;;;;;;6.80;6.07;;;28.20;62.90;;;;;;5114386;28;20049;-74
2023/08/27 07:29:51;;;;;;;9.38;7.70;;;28.20;62.80;;;;;;5113198;28;20103;-71
2023/08/27 07:32:16;;;;;;;10.38;8.90;;;28.20;62.70;;;;;;5116872;27;20027;-70
2023/08/27 07:34:42;;;;;;;18.20;16.40;;;28.20;62.60;;;;;;5119817;28;20023;-68
2023/08/27 07:37:08;;;;;;;16.40;14.70;;;28.20;62.60;;;;;;5113381;28;20035;-72
2023/08/27 07:39:34;;;;;;;13.30;11.98;;;28.30;62.70;;;;;;5113831;28;20051;-71
2023/08/27 07:42:00;;;;;;;14.38;12.88;;;28.30;62.60;;;;;;5112585;28;20055;-72
2023/08/27 07:44:26;;;;;;;10.27;9.32;;;28.30;62.50;;;;;;5112099;28;20028;-74
2023/08/27 07:46:51;;;;;;;7.88;7.03;;;28.40;62.40;;;;;;5112385;28;20031;-72
2023/08/27 07:49:17;;;;;;;9.35;8.45;;;28.40;62.20;;;;;;5113006;28;20074;-74
2023/08/27 07:51:43;;;;;;;8.85;7.95;;;28.40;62.10;;;;;;5113547;28;20059;-67
2023/08/27 07:54:08;;;;;;;7.72;7.03;;;28.50;62.10;;;;;;5113539;28;20024;-68
2023/08/27 07:56:34;;;;;;;8.07;7.32;;;28.50;62.10;;;;;;5113774;28;20042;-68
2023/08/27 07:58:59;;;;;;;7.57;6.55;;;28.50;62.00;;;;;;5113577;28;20103;-67
2023/08/27 08:01:26;;;;;;;6.15;5.55;;;28.50;61.90;;;;;;5113035;28;20106;-68
2023/08/27 08:03:52;;;;;;;5.28;4.78;;;28.50;61.80;;;;;;5112488;28;20541;-68
2023/08/27 08:06:17;;;;;;;5.30;4.80;;;28.50;61.80;;;;;;5112111;28;20168;-68
2023/08/27 08:08:43;;;;;;;4.63;4.13;;;28.50;61.70;;;;;;5113373;28;20501;-67
2023/08/27 08:11:09;;;;;;;4.85;3.58;;;28.50;61.50;;;;;;5113620;28;20048;-68
2023/08/27 08:13:36;;;;;;;3.97;3.40;;;28.50;61.40;;;;;;5112739;28;20023;-75
2023/08/27 08:16:02;;;;;;;4.63;3.20;;;28.50;61.40;;;;;;5109602;28;20035;-77
2023/08/27 08:18:28;;;;;;;3.38;3.08;;;28.60;61.30;;;;;;5110163;28;20461;-76
2023/08/27 08:20:55;;;;;;;3.75;3.03;;;28.60;61.10;;;;;;5112291;28;20104;-78
2023/08/27 08:23:22;;;;;;;3.95;2.88;;;28.70;60.80;;;;;;5138301;27;20034;-75
2023/08/27 08:25:51;;;;;;;3.10;2.80;;;28.80;60.80;;;;;;5115809;28;20065;-73
2023/08/27 08:28:16;;;;;;;4.90;3.03;;;28.90;60.70;;;;;;5116040;28;20448;-79
2023/08/27 08:30:48;;;;;;;3.58;2.67;;;28.90;60.60;;;;;;5115813;28;20047;-83
2023/08/27 08:33:17;;;;;;;4.15;2.63;;;28.90;60.40;;;;;;5116447;28;20059;-72
2023/08/27 08:35:44;;;;;;;3.95;2.80;;;29.00;60.40;;;;;;5116502;28;20035;-75
2023/08/27 08:38:09;;;;;;;2.92;2.63;;;29.00;60.30;;;;;;5118284;27;20385;-74
2023/08/27 08:40:46;;;;;;;2.97;2.67;;;29.00;60.30;;;;;;5132989;27;20020;-69
2023/08/27 08:43:28;;;;;;;3.60;2.95;;;29.00;60.30;;;;;;5104962;28;20070;-68
2023/08/27 08:46:03;;;;;;;2.63;2.42;;;29.10;60.20;;;;;;5102387;28;20031;-69
2023/08/27 08:48:31;;;;;;;2.50;2.28;;;29.10;60.20;;;;;;5101673;28;20034;-67
2023/08/27 08:50:58;;;;;;;2.58;2.38;;;29.20;60.10;;;;;;5112565;28;20024;-67
2023/08/27 08:53:25;;;;;;;2.92;2.63;;;29.30;60.00;;;;;;5115877;28;20032;-67
2023/08/27 08:55:57;;;;;;;3.72;2.65;;;29.40;60.00;;;;;;5124175;27;20054;-66
2023/08/27 08:58:27;;;;;;;4.07;2.40;;;29.50;59.80;;;;;;5137069;27;20076;-67
2023/08/27 09:00:55;;;;;;;4.43;2.40;;;29.60;59.70;;;;;;5135747;27;20019;-68
2023/08/27 09:03:21;;;;;;;5.00;2.38;;;29.70;59.70;;;;;;5116023;28;20051;-67
2023/08/27 09:05:50;;;;;;;2.58;2.38;;;29.80;59.50;;;;;;5116293;28;20071;-68
2023/08/27 09:08:16;;;;;;;3.53;2.70;;;30.00;59.40;;;;;;5116749;28;20067;-69
2023/08/27 09:10:42;;;;;;;2.88;2.38;;;30.00;59.20;;;;;;5116726;28;20034;-69
2023/08/27 09:13:09;;;;;;;3.03;2.47;;;30.10;59.10;;;;;;5116137;28;20483;-70
2023/08/27 09:15:35;;;;;;;2.55;2.35;;;30.20;58.90;;;;;;5115164;28;20027;-68
2023/08/27 09:18:02;;;;;;;3.53;2.50;;;30.30;58.80;;;;;;5115217;28;20039;-69
2023/08/27 09:20:28;;;;;;;2.75;2.50;;;30.40;58.70;;;;;;5114015;28;20477;-69
2023/08/27 09:22:54;;;;;;;2.78;2.50;;;30.40;58.50;;;;;;5114711;28;20098;-67
2023/08/27 09:25:19;;;;;;;3.40;2.80;;;30.50;58.40;;;;;;5116061;28;20358;-67
2023/08/27 09:27:45;;;;;;;3.22;2.60;;;30.60;58.30;;;;;;5115250;28;20027;-66
2023/08/27 09:30:11;;;;;;;5.03;2.80;;;30.60;58.00;;;;;;5115078;28;20024;-67
2023/08/27 09:32:37;;;;;;;3.13;2.63;;;30.60;57.90;;;;;;5113007;28;20024;-66
2023/08/27 09:35:05;;;;;;;3.00;2.70;;;30.50;57.90;;;;;;5114020;28;20069;-67
2023/08/27 09:37:43;;;;;;;3.20;2.90;;;30.50;57.70;;;;;;5114974;28;20031;-67
2023/08/27 09:40:11;;;;;;;3.35;3.05;;;30.50;57.50;;;;;;5110966;28;20038;-73
2023/08/27 09:42:39;;;;;;;3.00;2.70;;;30.50;57.40;;;;;;5113782;28;20019;-72
2023/08/27 09:45:06;;;;;;;3.17;2.88;;;30.50;57.30;;;;;;5113744;28;20084;-73
2023/08/27 09:47:39;;;;;;;4.28;3.38;;;30.50;57.20;;;;;;5115092;28;20497;-75
2023/08/27 09:50:07;;;;;;;4.18;3.05;;;30.40;57.10;;;;;;5115088;28;20062;-77
2023/08/27 09:52:33;;;;;;;3.78;3.35;;;30.30;57.10;;;;;;5113416;28;20077;-74
2023/08/27 09:54:59;;;;;;;3.75;3.08;;;30.20;57.10;;;;;;5114747;28;20110;-72
2023/08/27 09:57:25;;;;;;;3.80;3.20;;;30.20;57.20;;;;;;5115020;28;20111;-72
2023/08/27 09:59:52;;;;;;;3.38;2.78;;;30.10;57.20;;;;;;5114468;28;20094;-75
2023/08/27 10:02:19;;;;;;;3.03;2.72;;;30.10;57.30;;;;;;5126851;27;20030;-76
2023/08/27 10:04:54;;;;;;;4.43;3.17;;;30.10;57.40;;;;;;5151949;27;20035;-76
2023/08/27 10:07:21;;;;;;;3.63;2.83;;;30.10;57.30;;;;;;5094882;28;20119;-76
2023/08/27 10:09:51;;;;;;;3.33;3.00;;;30.10;57.30;;;;;;5093686;28;20377;-76
2023/08/27 10:12:18;;;;;;;3.17;2.88;;;30.00;57.20;;;;;;5093742;28;20466;-74
2023/08/27 10:14:45;;;;;;;2.90;2.60;;;30.00;57.20;;;;;;5101475;28;20347;-77
2023/08/27 10:17:12;;;;;;;3.63;2.80;;;29.90;57.30;;;;;;5114857;27;20042;-72
2023/08/27 10:19:38;;;;;;;2.70;2.50;;;30.00;57.50;;;;;;5135644;27;20071;-74
2023/08/27 10:22:05;;;;;;;4.05;2.67;;;30.00;57.50;;;;;;5133360;27;20506;-73
2023/08/27 10:24:31;;;;;;;3.30;3.00;;;30.00;57.50;;;;;;5113687;28;20090;-75
2023/08/27 10:27:03;;;;;;;3.28;2.97;;;30.00;57.50;;;;;;5113471;28;20027;-76
2023/08/27 10:29:30;;;;;;;4.10;3.30;;;30.10;57.50;;;;;;5113646;28;20509;-80
2023/08/27 10:31:56;;;;;;;2.72;2.53;;;30.30;57.50;;;;;;5115052;28;20024;-75
2023/08/27 10:34:23;;;;;;;2.63;2.42;;;30.40;57.30;;;;;;5112318;28;20108;-73
2023/08/27 10:36:51;;;;;;;2.40;2.20;;;30.50;57.20;;;;;;5113056;28;20035;-72
2023/08/27 10:39:26;;;;;;;3.97;2.95;;;30.60;57.10;;;;;;5112842;28;20039;-71
2023/08/27 10:41:52;;;;;;;3.10;2.80;;;30.60;56.90;;;;;;5113166;28;20071;-72
2023/08/27 10:44:22;;;;;;;3.50;3.05;;;30.70;56.90;;;;;;5113492;28;20153;-69
2023/08/27 10:47:08;;;;;;;3.50;2.97;;;30.80;56.80;;;;;;5112067;28;20032;-74
2023/08/27 10:49:36;;;;;;;3.30;3.00;;;30.90;56.60;;;;;;5120971;27;20128;-81
2023/08/27 10:52:13;;;;;;;2.75;2.55;;;31.00;56.50;;;;;;5127479;27;20027;-74
2023/08/27 10:54:39;;;;;;;3.13;2.75;;;31.00;56.40;;;;;;5113446;28;20037;-75
2023/08/27 10:57:21;;;;;;;3.95;2.80;;;31.00;56.30;;;;;;5113904;28;20038;-85
2023/08/27 10:59:47;;;;;;;4.13;2.90;;;31.10;56.30;;;;;;5113656;28;20028;-81
2023/08/27 11:02:15;;;;;;;5.25;2.90;;;31.10;56.30;;;;;;5113699;28;20031;-78
2023/08/27 11:04:43;;;;;;;3.25;2.78;;;31.10;56.20;;;;;;5130591;27;20038;-77
2023/08/27 11:07:17;;;;;;;4.20;3.00;;;31.00;56.10;;;;;;5112904;28;20036;-78
2023/08/27 11:09:48;;;;;;;3.63;2.70;;;31.00;56.10;;;;;;5112838;28;20031;-72
2023/08/27 11:12:25;;;;;;;3.05;2.72;;;31.00;56.10;;;;;;5110569;28;20032;-78
2023/08/27 11:14:52;;;;;;;3.58;2.92;;;30.90;56.20;;;;;;5111177;28;20031;-76
